메인 페이지
METAR-TAF:

METAR-TAF

공항 :

Vance Air Force Base, 오클라호마, 미국

위도: 36-20N, 경도: 097-55W, 고도: 398m

현재 날씨관측

예보는 42분 전, 18:56시(UTC)에 발표되었습니다.
남동13kt, 순간 최대 풍속 18kt
온도 21°C
습도 33%
기압 1012 hPa
시정: 16.1km
맑음

METAR: KEND 191856Z AUTO 14013G18KT 10SM CLR 21/04 A2988 RMK AO2 SLP117 T02100041

시각: 13:38 (19:38 UTC)

예보

예보는 1 시간 38분 전, 18:00시(UTC)에 발표되었습니다.
예보 대상 시간: 19일 18시부터 20일 24시까지 (UTC)
남동12kt, 순간 최대 풍속 18kt
시정 10km 이상
맑음
전환 중
20일 02시부터 20일 03시까지 (UTC)
남남동9kt
시정 10km 이상
고도 20000ft 상공 구름 조금
전환 중
20일 13시부터 20일 14시까지 (UTC)
12kt
시정 10km 이상
고도 1500ft 상공 구름 많음
고도 10000ft 상공 흐림
전환 중
20일 15시부터 20일 16시까지 (UTC)
10kt, 순간 최대 풍속 15kt
시정: 8000m
고도 1000ft 상공 구름 많음
약한소나기

TAF: KEND 191800Z 1918/2024 14012G18KT 9999 SKC QNH2979INS BECMG 2002/2003 16009KT 9999 FEW200 WS020/19045KT QNH2977INS BECMG 2013/2014 17012KT 9999 BKN015 OVC100 510204 QNH2975INS BECMG 2015/2016 18010G15KT 8000 -SHRA BKN010 510203 QNH2972INS TX24/1921Z TN04/2010Z

4,000개 이상의 공항 관측 자료 및 예보 (METAR 및 TAF 보고).

지도상에서 검색 가능한 기상관측소가 노란 점과 빨간 점으로 표시되어 있습니다.

기상관측소 명을 보려면 표시 위로 마우스를 이동하세요.

날씨 관측과 예보를 보려면 클릭하세요.

지도 변경 : 확대하려면 엑스 표시가 있는 녹색 버튼, 축소하려면 빼기 표시가 있는 녹색 버튼, 다음 페이지의 지도를 보려면 녹색 화살표를 클릭하세요.


METAR-TAF: